createdAt,value
2022-07-31T00:00:38.491Z,100.00
2022-07-31T00:03:46.812Z,100.00
2022-07-31T00:06:55.273Z,100.00
2022-07-31T00:10:04.740Z,100.00
2022-07-31T00:13:13.139Z,100.00
2022-07-31T00:16:22.642Z,100.00
2022-07-31T00:19:30.724Z,100.00
2022-07-31T00:22:39.176Z,100.00
2022-07-31T00:25:47.362Z,100.00
2022-07-31T00:28:55.502Z,100.00
2022-07-31T00:32:05.879Z,100.00
2022-07-31T00:35:15.263Z,100.00
2022-07-31T00:38:27.499Z,100.00
2022-07-31T00:41:42.361Z,100.00
2022-07-31T00:44:51.165Z,100.00
2022-07-31T00:48:01.798Z,100.00
2022-07-31T00:51:10.404Z,100.00
2022-07-31T00:54:22.602Z,100.00
2022-07-31T00:57:31.401Z,100.00
2022-07-31T01:00:40.067Z,100.00
2022-07-31T01:03:50.736Z,100.00
2022-07-31T01:06:59.527Z,100.00
2022-07-31T01:10:13.642Z,100.00
2022-07-31T01:13:34.522Z,100.00
2022-07-31T01:16:48.326Z,100.00
2022-07-31T01:19:59.080Z,100.00
2022-07-31T01:23:31.056Z,100.00
2022-07-31T01:27:13.600Z,100.00
2022-07-31T01:30:31.000Z,100.00
2022-07-31T01:33:52.309Z,100.00
2022-07-31T01:37:10.487Z,100.00
2022-07-31T01:40:28.705Z,100.00
2022-07-31T01:43:42.040Z,100.00
2022-07-31T01:46:54.754Z,100.00
2022-07-31T01:50:07.414Z,100.00
2022-07-31T01:53:21.517Z,100.00
2022-07-31T01:56:33.421Z,100.00
2022-07-31T01:59:44.808Z,100.00
2022-07-31T02:03:09.555Z,100.00
2022-07-31T02:06:23.314Z,100.00
2022-07-31T02:09:34.252Z,100.00
2022-07-31T02:12:45.945Z,100.00
2022-07-31T02:15:57.349Z,100.00
2022-07-31T02:19:11.930Z,100.00
2022-07-31T02:22:20.565Z,100.00
2022-07-31T02:25:37.114Z,100.00
2022-07-31T02:28:49.511Z,100.00
2022-07-31T02:32:02.890Z,100.00
2022-07-31T02:35:17.601Z,100.00
2022-07-31T02:38:29.728Z,100.00
2022-07-31T02:41:38.948Z,100.00
2022-07-31T02:44:48.334Z,100.00
2022-07-31T02:47:57.115Z,100.00
2022-07-31T02:51:08.376Z,100.00
2022-07-31T02:54:18.634Z,100.00
2022-07-31T02:57:27.062Z,100.00
2022-07-31T03:00:35.798Z,100.00
2022-07-31T03:03:44.701Z,100.00
2022-07-31T03:06:54.387Z,100.00
2022-07-31T03:10:02.573Z,100.00
2022-07-31T03:13:28.476Z,100.00
2022-07-31T03:16:38.281Z,100.00
2022-07-31T03:19:48.096Z,100.00
2022-07-31T03:22:58.503Z,100.00
2022-07-31T03:26:08.098Z,100.00
2022-07-31T03:29:41.172Z,100.00
2022-07-31T03:32:44.554Z,100.00
2022-07-31T03:35:53.805Z,100.00
2022-07-31T03:39:05.330Z,100.00
2022-07-31T03:42:20.152Z,100.00
2022-07-31T03:45:31.024Z,100.00
2022-07-31T03:48:40.101Z,100.00
2022-07-31T03:51:48.862Z,100.00
2022-07-31T03:55:01.305Z,100.00
2022-07-31T03:58:11.378Z,100.00
2022-07-31T04:01:20.810Z,100.00
2022-07-31T04:04:31.780Z,100.00
2022-07-31T04:07:43.014Z,100.00
2022-07-31T04:10:55.035Z,100.00
2022-07-31T04:14:06.207Z,100.00
2022-07-31T04:17:15.548Z,100.00
2022-07-31T04:20:24.622Z,100.00
2022-07-31T04:23:32.927Z,100.00
2022-07-31T04:27:01.749Z,100.00
2022-07-31T04:30:19.481Z,100.00
2022-07-31T04:33:29.537Z,100.00
2022-07-31T04:36:38.257Z,100.00
2022-07-31T04:39:47.095Z,100.00
2022-07-31T04:42:57.237Z,100.00
2022-07-31T04:46:17.160Z,100.00
2022-07-31T04:49:26.186Z,100.00
2022-07-31T04:52:35.111Z,100.00
2022-07-31T04:56:03.392Z,100.00
2022-07-31T04:59:17.269Z,100.00
2022-07-31T05:02:28.410Z,100.00
2022-07-31T05:05:37.237Z,100.00
2022-07-31T05:08:46.351Z,100.00
2022-07-31T05:11:55.308Z,100.00
2022-07-31T05:15:06.539Z,100.00
2022-07-31T05:18:14.877Z,100.00
2022-07-31T05:22:03.745Z,100.00
2022-07-31T05:25:44.836Z,100.00
2022-07-31T05:28:58.608Z,100.00
2022-07-31T05:32:09.191Z,100.00
2022-07-31T05:35:18.609Z,100.00
2022-07-31T05:38:27.026Z,100.00
2022-07-31T05:41:55.752Z,100.00
2022-07-31T05:45:16.026Z,100.00
2022-07-31T05:48:25.865Z,100.00
2022-07-31T05:51:34.548Z,100.00
2022-07-31T05:54:45.628Z,100.00
2022-07-31T05:58:21.256Z,100.00
2022-07-31T06:01:29.927Z,100.00
2022-07-31T06:04:39.574Z,100.00
2022-07-31T06:07:51.928Z,100.00
2022-07-31T06:11:00.799Z,91.82
2022-07-31T06:14:09.585Z,83.19
2022-07-31T06:17:45.693Z,83.68
2022-07-31T06:21:05.431Z,89.98
2022-07-31T06:24:14.022Z,87.92
2022-07-31T06:27:33.370Z,87.18
2022-07-31T06:30:43.034Z,82.70
2022-07-31T06:33:52.779Z,81.95
2022-07-31T06:37:06.163Z,80.01
2022-07-31T06:40:15.477Z,80.20
2022-07-31T06:43:51.884Z,84.77
2022-07-31T06:47:38.617Z,80.93
2022-07-31T06:51:27.842Z,84.95
2022-07-31T06:54:30.802Z,84.04
2022-07-31T06:57:39.866Z,82.79
2022-07-31T07:00:48.154Z,85.44
2022-07-31T07:03:58.472Z,83.75
2022-07-31T07:07:06.619Z,83.90
2022-07-31T07:10:16.427Z,83.50
2022-07-31T07:13:54.150Z,83.98
2022-07-31T07:17:05.857Z,84.71
2022-07-31T07:20:15.468Z,85.98
2022-07-31T07:23:24.253Z,86.37
2022-07-31T07:26:40.394Z,84.34
2022-07-31T07:29:49.047Z,85.87
2022-07-31T07:32:57.507Z,84.98
2022-07-31T07:36:06.428Z,83.97
2022-07-31T07:39:14.767Z,82.18
2022-07-31T07:42:25.505Z,82.58
2022-07-31T07:45:33.977Z,82.14
2022-07-31T07:48:43.137Z,80.91
2022-07-31T07:51:59.013Z,77.30
2022-07-31T07:55:20.979Z,77.81
2022-07-31T07:58:49.487Z,78.54
2022-07-31T08:02:16.940Z,75.41
2022-07-31T08:05:27.656Z,78.98
2022-07-31T08:08:36.007Z,72.90
2022-07-31T08:12:04.724Z,72.55
2022-07-31T08:15:33.765Z,73.29
2022-07-31T08:18:51.831Z,75.78
2022-07-31T08:22:00.550Z,72.59
2022-07-31T08:25:11.300Z,69.00
2022-07-31T08:28:26.842Z,66.41
2022-07-31T08:31:36.831Z,66.43
2022-07-31T08:35:20.766Z,65.99
2022-07-31T08:38:30.161Z,63.80
2022-07-31T08:42:06.718Z,63.70
2022-07-31T08:45:16.423Z,62.36
2022-07-31T08:48:43.056Z,62.52
2022-07-31T08:51:52.959Z,62.82
2022-07-31T08:55:54.974Z,66.93
2022-07-31T08:58:51.152Z,65.41
2022-07-31T09:01:59.664Z,63.52
2022-07-31T09:05:14.076Z,64.74
2022-07-31T09:08:23.915Z,63.51
2022-07-31T09:11:34.034Z,67.90
2022-07-31T09:15:22.734Z,69.19
2022-07-31T09:18:32.173Z,63.60
2022-07-31T09:21:49.866Z,62.96
2022-07-31T09:25:11.912Z,62.02
2022-07-31T09:28:25.014Z,58.04
2022-07-31T09:31:34.454Z,57.10
2022-07-31T09:35:21.091Z,61.68
2022-07-31T09:38:36.352Z,59.31
2022-07-31T09:42:16.852Z,61.34
2022-07-31T09:45:48.425Z,59.31
2022-07-31T09:49:00.146Z,56.83
2022-07-31T09:52:20.683Z,56.14
2022-07-31T09:55:31.107Z,56.81
2022-07-31T09:58:41.280Z,52.37
2022-07-31T10:01:51.303Z,55.16
2022-07-31T10:05:01.121Z,56.16
2022-07-31T10:08:13.095Z,54.92
2022-07-31T10:11:56.879Z,55.56
2022-07-31T10:15:13.034Z,54.81
2022-07-31T10:18:35.517Z,56.38
2022-07-31T10:22:20.197Z,56.74
2022-07-31T10:25:32.573Z,54.28
2022-07-31T10:28:44.780Z,54.13
2022-07-31T10:31:53.624Z,56.51
2022-07-31T10:35:07.638Z,58.65
2022-07-31T10:38:48.717Z,59.04
2022-07-31T10:42:30.713Z,56.66
2022-07-31T10:45:50.369Z,56.98
2022-07-31T10:49:19.642Z,57.27
2022-07-31T10:52:39.821Z,52.37
2022-07-31T10:56:03.716Z,54.09
2022-07-31T10:59:31.491Z,53.60
2022-07-31T11:03:02.503Z,54.67
2022-07-31T11:06:43.217Z,51.19
2022-07-31T11:10:20.500Z,49.64
2022-07-31T11:14:00.228Z,52.18
2022-07-31T11:18:22.699Z,55.00
2022-07-31T11:21:37.776Z,53.58
2022-07-31T11:24:41.068Z,51.70
2022-07-31T11:27:50.603Z,50.99
2022-07-31T11:31:03.378Z,49.82
2022-07-31T11:34:11.882Z,50.48
2022-07-31T11:37:24.561Z,52.23
2022-07-31T11:40:32.843Z,51.10
2022-07-31T11:43:46.337Z,49.53
2022-07-31T11:46:56.474Z,48.54
2022-07-31T11:50:06.019Z,49.29
2022-07-31T11:53:16.365Z,48.42
2022-07-31T11:56:27.417Z,49.38
2022-07-31T11:59:45.871Z,48.58
2022-07-31T12:02:58.797Z,50.94
2022-07-31T12:06:10.021Z,50.35
2022-07-31T12:10:02.657Z,49.76
2022-07-31T12:12:48.540Z,49.60
2022-07-31T12:16:04.118Z,48.55
2022-07-31T12:19:12.620Z,50.16
2022-07-31T12:22:21.940Z,48.31
2022-07-31T12:25:41.802Z,50.94
2022-07-31T12:28:59.623Z,49.92
2022-07-31T12:32:09.193Z,52.10
2022-07-31T12:35:17.631Z,52.15
2022-07-31T12:38:45.541Z,52.78
2022-07-31T12:41:59.450Z,50.01
2022-07-31T12:45:18.513Z,50.41
2022-07-31T12:48:36.269Z,50.14
2022-07-31T12:51:47.838Z,48.85
2022-07-31T12:54:56.657Z,49.87
2022-07-31T12:58:06.588Z,50.64
2022-07-31T13:01:15.098Z,47.34
2022-07-31T13:04:23.843Z,48.38
2022-07-31T13:07:44.274Z,45.93
2022-07-31T13:10:53.673Z,46.64
2022-07-31T13:14:03.860Z,48.01
2022-07-31T13:17:13.852Z,46.21
2022-07-31T13:20:25.741Z,46.89
2022-07-31T13:23:34.603Z,47.33
2022-07-31T13:26:45.375Z,47.38
2022-07-31T13:29:55.463Z,46.31
2022-07-31T13:33:04.138Z,46.11
2022-07-31T13:36:12.967Z,46.47
2022-07-31T13:39:22.690Z,46.03
2022-07-31T13:42:31.518Z,47.94
2022-07-31T13:45:43.264Z,48.14
2022-07-31T13:48:56.654Z,45.75
2022-07-31T13:52:08.069Z,45.66
2022-07-31T13:55:16.889Z,45.22
2022-07-31T13:58:27.195Z,45.22
2022-07-31T14:02:03.662Z,44.04
2022-07-31T14:05:07.408Z,42.50
2022-07-31T14:08:33.477Z,43.03
2022-07-31T14:11:45.742Z,44.08
2022-07-31T14:14:54.294Z,44.61
2022-07-31T14:18:08.150Z,44.62
2022-07-31T14:21:16.911Z,44.22
2022-07-31T14:24:26.152Z,43.73
2022-07-31T14:27:35.865Z,45.48
2022-07-31T14:30:46.777Z,45.24
2022-07-31T14:33:59.490Z,45.45
2022-07-31T14:37:08.317Z,44.85
2022-07-31T14:40:18.174Z,45.88
2022-07-31T14:43:26.838Z,45.07
2022-07-31T14:46:35.442Z,45.15
2022-07-31T14:50:09.647Z,44.71
2022-07-31T14:53:13.680Z,44.28
2022-07-31T14:56:39.675Z,45.60
2022-07-31T14:59:52.064Z,45.13
2022-07-31T15:03:00.784Z,44.23
2022-07-31T15:06:50.834Z,46.19
2022-07-31T15:09:42.767Z,44.19
2022-07-31T15:12:51.209Z,44.72
2022-07-31T15:15:59.628Z,45.90
2022-07-31T15:19:08.329Z,45.40
2022-07-31T15:22:20.519Z,45.56
2022-07-31T15:25:29.014Z,44.67
2022-07-31T15:28:37.458Z,47.24
2022-07-31T15:31:45.939Z,46.81
2022-07-31T15:34:54.122Z,45.94
2022-07-31T15:38:03.721Z,45.17
2022-07-31T15:41:12.361Z,45.90
2022-07-31T15:44:27.572Z,46.87
2022-07-31T15:47:36.349Z,44.88
2022-07-31T15:50:44.986Z,46.69
2022-07-31T15:53:54.590Z,45.56
2022-07-31T15:57:04.625Z,46.88
2022-07-31T16:00:14.704Z,47.12
2022-07-31T16:03:22.857Z,47.00
2022-07-31T16:06:32.231Z,48.30
2022-07-31T16:10:03.548Z,47.56
2022-07-31T16:13:12.085Z,47.50
2022-07-31T16:16:21.124Z,47.31
2022-07-31T16:19:31.097Z,46.74
2022-07-31T16:22:45.091Z,47.61
2022-07-31T16:25:55.039Z,48.07
2022-07-31T16:29:03.714Z,47.97
2022-07-31T16:32:12.029Z,47.67
2022-07-31T16:35:20.355Z,48.93
2022-07-31T16:38:28.837Z,50.10
2022-07-31T16:41:54.438Z,50.28
2022-07-31T16:45:04.823Z,49.51
2022-07-31T16:48:13.352Z,49.85
2022-07-31T16:51:21.505Z,50.09
2022-07-31T16:54:29.740Z,49.78
2022-07-31T16:57:39.224Z,48.74
2022-07-31T17:00:48.894Z,52.45
2022-07-31T17:04:01.228Z,50.76
2022-07-31T17:07:11.220Z,51.51
2022-07-31T17:10:19.644Z,51.27
2022-07-31T17:13:29.555Z,51.85
2022-07-31T17:16:38.105Z,50.87
2022-07-31T17:19:47.614Z,43.44
2022-07-31T17:22:56.047Z,42.71
2022-07-31T17:26:04.795Z,43.01
2022-07-31T17:29:14.391Z,45.30
2022-07-31T17:32:22.847Z,45.73
2022-07-31T17:35:31.379Z,47.27
2022-07-31T17:38:39.683Z,48.38
2022-07-31T17:41:49.260Z,49.73
2022-07-31T17:44:58.899Z,51.00
2022-07-31T17:48:08.161Z,51.50
2022-07-31T17:51:16.921Z,51.78
2022-07-31T17:54:25.787Z,54.49
2022-07-31T17:57:36.475Z,54.70
2022-07-31T18:00:46.272Z,55.12
2022-07-31T18:03:54.852Z,55.12
2022-07-31T18:07:05.206Z,57.43
2022-07-31T18:10:13.678Z,57.00
2022-07-31T18:13:25.009Z,58.36
2022-07-31T18:16:34.626Z,57.74
2022-07-31T18:19:43.185Z,58.33
2022-07-31T18:22:52.221Z,59.03
2022-07-31T18:26:00.918Z,59.22
2022-07-31T18:29:09.578Z,59.54
2022-07-31T18:32:19.888Z,60.87
2022-07-31T18:35:29.380Z,61.86
2022-07-31T18:38:38.122Z,61.40
2022-07-31T18:41:49.092Z,62.70
2022-07-31T18:44:58.145Z,62.94
2022-07-31T18:48:08.142Z,64.26
2022-07-31T18:51:19.797Z,64.45
2022-07-31T18:54:28.645Z,65.38
2022-07-31T18:57:37.254Z,66.55
2022-07-31T19:00:45.878Z,66.32
2022-07-31T19:03:56.088Z,67.92
2022-07-31T19:07:14.489Z,68.80
2022-07-31T19:10:29.395Z,70.14
2022-07-31T19:13:43.093Z,70.17
2022-07-31T19:16:58.086Z,69.74
2022-07-31T19:20:12.697Z,71.72
2022-07-31T19:23:41.149Z,71.02
2022-07-31T19:26:49.652Z,71.79
2022-07-31T19:29:59.185Z,72.50
2022-07-31T19:33:10.861Z,72.95
2022-07-31T19:36:29.559Z,74.04
2022-07-31T19:39:38.193Z,74.24
2022-07-31T19:42:46.613Z,74.53
2022-07-31T19:46:00.545Z,74.32
2022-07-31T19:49:20.710Z,74.52
2022-07-31T19:52:30.610Z,73.86
2022-07-31T19:55:41.666Z,73.73
2022-07-31T19:58:51.255Z,73.44
2022-07-31T20:01:59.929Z,74.17
2022-07-31T20:05:10.545Z,74.32
2022-07-31T20:08:20.343Z,73.84
2022-07-31T20:11:31.705Z,74.05
2022-07-31T20:14:40.468Z,74.51
2022-07-31T20:17:49.281Z,75.26
2022-07-31T20:21:00.808Z,75.08
2022-07-31T20:24:11.708Z,74.80
2022-07-31T20:27:20.614Z,75.30
2022-07-31T20:30:29.172Z,75.55
2022-07-31T20:33:38.379Z,75.37
2022-07-31T20:36:46.656Z,75.76
2022-07-31T20:39:56.974Z,75.28
2022-07-31T20:43:05.368Z,75.37
2022-07-31T20:46:15.727Z,75.43
2022-07-31T20:49:35.379Z,75.07
2022-07-31T20:52:48.493Z,75.92
2022-07-31T20:55:59.330Z,76.14
2022-07-31T20:59:07.671Z,75.84
2022-07-31T21:02:16.197Z,76.24
2022-07-31T21:05:29.322Z,76.49
2022-07-31T21:08:39.300Z,76.73
2022-07-31T21:11:49.129Z,76.60
2022-07-31T21:14:57.451Z,76.60
2022-07-31T21:18:07.238Z,76.48
2022-07-31T21:21:16.753Z,76.82
2022-07-31T21:24:25.779Z,78.17
2022-07-31T21:27:37.251Z,77.82
2022-07-31T21:30:46.311Z,78.68
2022-07-31T21:33:55.432Z,78.17
2022-07-31T21:37:03.870Z,78.97
2022-07-31T21:40:17.107Z,79.59
2022-07-31T21:43:30.518Z,80.08
2022-07-31T21:46:51.745Z,81.68
2022-07-31T21:50:02.934Z,81.59
2022-07-31T21:53:11.462Z,82.01
2022-07-31T21:56:19.763Z,81.73
2022-07-31T21:59:29.824Z,82.58
2022-07-31T22:02:38.207Z,82.86
2022-07-31T22:06:04.078Z,83.48
2022-07-31T22:09:12.622Z,82.85
2022-07-31T22:12:21.848Z,83.37
2022-07-31T22:15:59.187Z,83.10
2022-07-31T22:19:03.231Z,83.19
2022-07-31T22:22:13.225Z,82.70
2022-07-31T22:25:22.803Z,83.06
2022-07-31T22:28:32.576Z,82.86
2022-07-31T22:31:49.905Z,83.21
2022-07-31T22:35:02.165Z,83.89
2022-07-31T22:38:11.130Z,83.60
2022-07-31T22:41:19.777Z,82.78
2022-07-31T22:44:28.566Z,83.79
2022-07-31T22:47:40.280Z,83.18
2022-07-31T22:50:48.973Z,83.23
2022-07-31T22:53:57.311Z,83.05
2022-07-31T22:57:05.883Z,82.78
2022-07-31T23:00:18.184Z,83.31
2022-07-31T23:03:27.811Z,82.79
2022-07-31T23:06:36.349Z,84.15
2022-07-31T23:09:44.899Z,84.36
2022-07-31T23:12:53.315Z,84.46
2022-07-31T23:16:01.711Z,84.50
2022-07-31T23:19:12.065Z,83.53
2022-07-31T23:22:20.531Z,82.85
2022-07-31T23:25:41.818Z,83.27
2022-07-31T23:28:49.955Z,83.44
2022-07-31T23:31:58.146Z,83.64
2022-07-31T23:35:09.035Z,83.89
2022-07-31T23:38:17.425Z,84.55
2022-07-31T23:41:43.067Z,84.09
2022-07-31T23:44:52.569Z,84.19
2022-07-31T23:48:00.866Z,83.77
2022-07-31T23:51:10.723Z,83.75
2022-07-31T23:54:18.986Z,82.92
2022-07-31T23:57:27.494Z,82.40
